map of BIQ home
BIQ - Airport
Location
City:  Biarritz, Aquitaine, France
Name:Bayonne-Anglet
ICAO:LFBZ
IATA:BIQ

Details
Type:Airport (Aerodrome, Airfield)
Use:Public/Civil
Latitude:4328'06"N (43.468333)
Longitude:131'52"W (-1.531110)
Elevation:245 ft (75 m)
Variation:0.09W (WMM2015 magnetic declination)
0.12 annual change
Runways:1
Longest:7382 × 148 ft (2250 × 45 m), paved

Time
Time Zone:UTC+1 (DST+2)
Local Time:

Weather
METAR:LFBZ 240900Z AUTO VRB02KT 9999 BKN036 BKN064 OVC080 04/01 Q1014 NOSIG
TAF:LFBZ 240500Z 2406/2506 10005KT 9999 BKN040
BECMG 2408/2410 18005KT
BECMG 2422/2424 BKN014 PROB30
TEMPO 2500/2506 4000 -RA BKN010

Related Locations
Nearby:
Farthest:NZFT: 12234 mi / 19689 km
Flat Point, WGN, NZ

Find:

   beyond  
but within

Other Information
Maps:
NOTAMs:
Links:
Sources:

  
  • flag of France
  • flag of Aquitaine
  

Sectional Chart

Flight Planning
at skyvector.com

Satellite Image

Google Maps Satellite view

 

Copyright © 2004-2019 Karl L. Swartz. All rights reserved.
The Great Circle Mapper name and logo are trademarks of the Great Circle Mapper.
All other trademarks mentioned herein belong to their respective owners.
Please see credits for attibutions and further copyright information.

  Follow gcmap on Facebook Follow gcmap on Twitter Follow gcmap on Google+ GCmap on LinkedIn

hCard Microformat

Geo Microformat